Time;durP1;ratioP1;P1;durP2;ratioP2;P2;SDS_P1;SDS_P2;PMS_P1;PMS_P2;Temp;Humidity;BMP_temperature;BMP_pressure;BME280_temperature;BME280_humidity;BME280_pressure;Samples;Min_cycle;Max_cycle;Signal;HPM_P1;HPM_P2
2021/05/21 00:00:15;;;;;;;3.10;2.80;;;;;;;8.85;89.50;100667.31;5062273;28;20723;-74
2021/05/21 00:02:41;;;;;;;4.10;3.33;;;;;;;8.86;89.06;100666.41;5058028;28;20199;-74
2021/05/21 00:05:10;;;;;;;5.17;3.10;;;;;;;8.86;89.04;100658.63;5057137;28;20192;-74
2021/05/21 00:07:37;;;;;;;3.40;2.70;;;;;;;8.85;88.75;100659.53;5057085;28;20209;-74
2021/05/21 00:10:04;;;;;;;3.43;3.13;;;;;;;8.82;89.87;100656.97;5056764;28;20252;-74
2021/05/21 00:12:30;;;;;;;4.47;3.10;;;;;;;8.79;89.84;100660.47;5058883;28;20234;-74
2021/05/21 00:14:55;;;;;;;3.70;2.70;;;;;;;8.76;89.49;100646.66;5061220;28;20198;-74
2021/05/21 00:17:21;;;;;;;3.60;2.70;;;;;;;8.77;89.50;100651.84;5058662;28;20223;-74
2021/05/21 00:19:47;;;;;;;3.70;3.00;;;;;;;8.74;89.65;100649.28;5060197;28;20219;-74
2021/05/21 00:22:14;;;;;;;3.67;3.00;;;;;;;8.75;89.73;100651.03;5061180;28;20292;-74
2021/05/21 00:24:40;;;;;;;3.47;3.17;;;;;;;8.70;89.75;100643.28;5058954;28;20204;-74
2021/05/21 00:27:07;;;;;;;4.00;2.80;;;;;;;8.69;89.69;100640.75;5060212;28;20222;-74
2021/05/21 00:29:33;;;;;;;3.30;3.00;;;;;;;8.69;89.79;100638.16;5057683;28;20220;-74
2021/05/21 00:31:59;;;;;;;2.70;2.50;;;;;;;8.67;90.05;100635.56;5051245;28;20594;-74
2021/05/21 00:34:26;;;;;;;3.37;3.03;;;;;;;8.67;90.04;100637.28;5054674;28;20192;-74
2021/05/21 00:36:52;;;;;;;3.37;2.93;;;;;;;8.67;90.22;100635.56;5056902;28;20228;-74
2021/05/21 00:39:19;;;;;;;3.10;2.80;;;;;;;8.66;90.24;100636.44;5060049;28;20202;-74
2021/05/21 00:41:45;;;;;;;3.03;2.67;;;;;;;8.68;89.98;100632.06;5058204;28;20776;-74
2021/05/21 00:44:12;;;;;;;2.77;2.57;;;;;;;8.70;89.75;100632.91;5061652;28;20195;-74
2021/05/21 00:46:38;;;;;;;4.17;2.73;;;;;;;8.70;89.83;100622.50;5061435;28;22636;-74
2021/05/21 00:49:04;;;;;;;4.20;2.90;;;;;;;8.72;89.85;100619.88;5061523;28;20631;-74
2021/05/21 00:51:30;;;;;;;3.30;2.90;;;;;;;8.70;89.66;100614.69;5055287;28;20288;-74
2021/05/21 00:53:58;;;;;;;4.13;2.83;;;;;;;8.70;89.81;100606.91;5061787;28;20195;-74
2021/05/21 00:56:25;;;;;;;2.77;2.57;;;;;;;8.71;89.71;100606.03;5055419;28;20245;-74
2021/05/21 00:58:51;;;;;;;4.50;2.63;;;;;;;8.70;89.05;100601.72;5063677;28;20194;-74
2021/05/21 01:01:19;;;;;;;3.50;2.70;;;;;;;8.71;89.07;100602.59;5065227;28;20212;-74
2021/05/21 01:03:45;;;;;;;3.93;2.47;;;;;;;8.71;89.27;100589.59;5045307;28;20545;-74
2021/05/21 01:06:11;;;;;;;2.73;2.43;;;;;;;8.70;89.07;100593.06;5049517;28;20317;-74
2021/05/21 01:08:38;;;;;;;3.93;2.53;;;;;;;8.69;89.11;100583.56;5063694;28;20188;-74
2021/05/21 01:11:05;;;;;;;3.07;2.77;;;;;;;8.69;89.48;100579.22;5059017;28;20236;-75
2021/05/21 01:13:33;;;;;;;2.47;2.27;;;;;;;8.69;88.61;100575.78;5063589;28;20194;-74
2021/05/21 01:15:59;;;;;;;2.70;2.00;;;;;;;8.67;89.19;100568.00;5061917;28;20211;-74
2021/05/21 01:18:25;;;;;;;3.63;2.20;;;;;;;8.67;88.63;100567.13;5064602;28;20605;-74
2021/05/21 01:20:52;;;;;;;2.60;2.40;;;;;;;8.68;89.08;100561.03;5061212;28;20219;-74
2021/05/21 01:23:18;;;;;;;2.40;2.20;;;;;;;8.68;88.94;100561.91;5061543;28;20198;-74
2021/05/21 01:25:44;;;;;;;3.10;2.20;;;;;;;8.69;88.97;100562.78;5058629;28;20570;-74
2021/05/21 01:28:13;;;;;;;2.43;2.23;;;;;;;8.70;88.73;100557.53;5067512;28;20566;-74
2021/05/21 01:30:39;;;;;;;3.60;2.40;;;;;;;8.74;88.29;100547.06;5057836;28;20231;-74
2021/05/21 01:33:06;;;;;;;2.47;2.27;;;;;;;8.74;88.16;100540.13;5065296;28;20621;-74
2021/05/21 01:35:32;;;;;;;2.93;2.63;;;;;;;8.75;87.96;100536.63;5060475;28;20195;-74
2021/05/21 01:38:00;;;;;;;2.97;2.30;;;;;;;8.76;87.68;100535.78;5065449;28;20226;-74
2021/05/21 01:40:28;;;;;;;2.70;2.50;;;;;;;8.74;87.93;100534.91;5059605;28;20219;-74
2021/05/21 01:42:56;;;;;;;2.77;2.50;;;;;;;8.73;87.65;100525.41;5065471;28;20237;-74
2021/05/21 01:45:22;;;;;;;2.50;2.30;;;;;;;8.71;87.36;100522.00;5060714;28;20266;-74
2021/05/21 01:47:49;;;;;;;2.40;2.20;;;;;;;8.67;87.51;100526.41;5066251;28;20377;-74
2021/05/21 01:50:16;;;;;;;3.20;2.20;;;;;;;8.62;88.02;100528.25;5060325;28;20311;-74
2021/05/21 01:52:44;;;;;;;3.10;2.53;;;;;;;8.57;88.25;100526.63;5063086;28;20282;-74
2021/05/21 01:55:12;;;;;;;2.93;2.63;;;;;;;8.51;88.73;100520.66;5061236;28;20574;-74
2021/05/21 01:57:38;;;;;;;2.40;2.17;;;;;;;8.43;88.53;100521.69;5062914;28;20230;-74
2021/05/21 02:00:06;;;;;;;2.30;2.10;;;;;;;8.39;88.49;100519.97;5061672;28;20226;-74
2021/05/21 02:02:39;;;;;;;2.83;2.30;;;;;;;8.30;88.59;100521.88;5066346;28;20266;-74
2021/05/21 02:05:07;;;;;;;2.57;2.37;;;;;;;8.26;88.75;100512.41;5057729;28;20219;-74
2021/05/21 02:07:34;;;;;;;3.23;2.10;;;;;;;8.23;88.65;100511.63;5064554;28;20671;-74
2021/05/21 02:10:02;;;;;;;3.50;2.67;;;;;;;8.21;89.13;100508.19;5058726;28;20216;-73
2021/05/21 02:12:31;;;;;;;3.10;2.63;;;;;;;8.18;89.21;100503.03;5061225;28;20246;-74
2021/05/21 02:14:58;;;;;;;2.40;2.20;;;;;;;8.15;89.34;100501.38;5059650;28;20286;-74
2021/05/21 02:17:25;;;;;;;2.70;2.50;;;;;;;8.13;89.76;100501.41;5062116;28;20281;-74
2021/05/21 02:19:51;;;;;;;3.23;2.67;;;;;;;8.15;89.63;100493.59;5059671;28;20219;-73
2021/05/21 02:22:19;;;;;;;3.20;2.57;;;;;;;8.20;89.71;100488.31;5064166;28;20206;-74
2021/05/21 02:24:45;;;;;;;2.90;2.17;;;;;;;8.20;90.23;100481.38;5059679;28;20944;-74
2021/05/21 02:27:11;;;;;;;2.90;2.30;;;;;;;8.22;89.73;100479.59;5060592;28;20767;-74
2021/05/21 02:29:39;;;;;;;3.00;2.60;;;;;;;8.26;89.33;100480.41;5059831;28;20707;-74
2021/05/21 02:32:05;;;;;;;3.60;2.83;;;;;;;8.28;89.76;100470.81;5063101;28;20199;-74
2021/05/21 02:34:31;;;;;;;3.03;2.57;;;;;;;8.30;89.92;100463.84;5059979;28;20195;-74
2021/05/21 02:36:57;;;;;;;3.03;2.43;;;;;;;8.32;90.60;100462.13;5058236;28;20330;-74
2021/05/21 02:39:23;;;;;;;3.00;2.70;;;;;;;8.33;89.59;100458.59;5059986;28;20281;-74
2021/05/21 02:41:49;;;;;;;2.83;2.50;;;;;;;8.35;89.91;100459.44;5063116;28;20216;-74
2021/05/21 02:44:15;;;;;;;3.13;2.70;;;;;;;8.37;89.55;100462.84;5062717;28;20694;-74
2021/05/21 02:46:42;;;;;;;3.00;2.40;;;;;;;8.39;89.38;100458.50;5062709;28;20198;-74
2021/05/21 02:49:08;;;;;;;4.43;2.30;;;;;;;8.41;89.15;100453.25;5060868;28;20214;-74
2021/05/21 02:51:34;;;;;;;4.33;2.47;;;;;;;8.41;89.48;100454.13;5062665;28;20649;-74
2021/05/21 02:54:00;;;;;;;2.50;2.30;;;;;;;8.43;89.35;100448.94;5062126;28;20540;-74
2021/05/21 02:56:26;;;;;;;2.33;2.10;;;;;;;8.47;89.90;100447.97;5060480;28;20216;-74
2021/05/21 02:58:52;;;;;;;2.70;2.50;;;;;;;8.47;89.43;100437.59;5064121;28;20680;-74
2021/05/21 03:01:18;;;;;;;3.30;2.40;;;;;;;8.48;88.43;100439.31;5059882;28;20532;-74
2021/05/21 03:03:45;;;;;;;3.53;2.43;;;;;;;8.50;88.64;100433.19;5060227;28;20198;-74
2021/05/21 03:06:11;;;;;;;3.03;2.50;;;;;;;8.52;89.06;100439.19;5058255;28;20799;-74
2021/05/21 03:08:37;;;;;;;2.83;2.50;;;;;;;8.53;88.70;100442.63;5061433;28;20204;-74
2021/05/21 03:11:02;;;;;;;2.70;2.30;;;;;;;8.55;87.88;100429.63;5056856;28;20670;-74
2021/05/21 03:13:28;;;;;;;2.60;2.40;;;;;;;8.58;87.86;100430.41;5057531;28;20281;-74
2021/05/21 03:15:54;;;;;;;2.53;2.33;;;;;;;8.60;87.57;100427.78;5060718;28;20195;-74
2021/05/21 03:18:22;;;;;;;2.50;2.03;;;;;;;8.59;87.87;100429.53;5063155;28;20281;-74
2021/05/21 03:20:50;;;;;;;4.03;2.27;;;;;;;8.59;87.73;100429.53;5061641;28;20245;-74
2021/05/21 03:23:16;;;;;;;2.60;2.40;;;;;;;8.62;88.07;100416.50;5062117;28;20198;-74
2021/05/21 03:25:43;;;;;;;2.30;2.10;;;;;;;8.61;87.59;100419.09;5058367;28;20196;-74
2021/05/21 03:28:10;;;;;;;3.47;2.50;;;;;;;8.62;87.87;100418.19;5060798;28;20230;-74
2021/05/21 03:30:36;;;;;;;3.37;2.27;;;;;;;8.63;87.67;100417.31;5057322;28;20739;-74
2021/05/21 03:33:03;;;;;;;2.37;2.17;;;;;;;8.67;87.49;100418.97;5060672;28;20195;-74
2021/05/21 03:35:29;;;;;;;3.13;2.07;;;;;;;8.73;87.25;100424.03;5059796;28;20217;-74
2021/05/21 03:37:55;;;;;;;2.53;2.33;;;;;;;8.79;86.96;100421.28;5060331;28;20215;-74
2021/05/21 03:40:21;;;;;;;3.37;2.30;;;;;;;8.85;87.61;100405.56;5061519;28;20215;-74
2021/05/21 03:42:48;;;;;;;3.50;2.30;;;;;;;8.89;86.55;100408.97;5060758;28;20282;-74
2021/05/21 03:45:15;;;;;;;3.53;2.23;;;;;;;8.97;86.11;100404.44;5061981;28;20205;-74
2021/05/21 03:47:41;;;;;;;2.47;2.27;;;;;;;9.05;86.18;100405.09;5058471;28;20242;-74
2021/05/21 03:50:09;;;;;;;2.53;2.27;;;;;;;9.10;85.91;100395.47;5060468;28;20215;-74
2021/05/21 03:52:35;;;;;;;2.40;2.20;;;;;;;9.16;85.39;100391.84;5060763;28;20195;-74
2021/05/21 03:55:03;;;;;;;2.03;1.93;;;;;;;9.20;85.15;100380.50;5060080;28;20206;-74
2021/05/21 03:57:30;;;;;;;2.67;2.13;;;;;;;9.25;84.33;100375.16;5061137;28;20302;-74
2021/05/21 03:59:56;;;;;;;2.37;2.17;;;;;;;9.28;83.98;100388.09;5059960;28;20272;-74
2021/05/21 04:02:22;;;;;;;2.17;1.97;;;;;;;9.31;83.84;100384.59;5061957;28;20223;-74
2021/05/21 04:04:48;;;;;;;2.10;1.90;;;;;;;9.32;84.60;100383.69;5059324;28;20318;-74
2021/05/21 04:07:14;;;;;;;2.90;2.40;;;;;;;9.34;84.01;100382.75;5060018;28;20195;-74
2021/05/21 04:09:40;;;;;;;2.83;1.90;;;;;;;9.39;83.82;100383.50;5055459;28;20248;-74
2021/05/21 04:12:07;;;;;;;2.40;2.20;;;;;;;9.43;84.18;100379.06;5061718;28;20209;-74
2021/05/21 04:14:33;;;;;;;2.63;2.43;;;;;;;9.43;83.49;100387.72;5057968;28;20198;-74
2021/05/21 04:16:59;;;;;;;3.00;2.30;;;;;;;9.41;84.03;100380.84;5061075;28;20566;-74
2021/05/21 04:19:25;;;;;;;2.20;1.83;;;;;;;9.37;84.84;100376.63;5055605;28;20704;-74
2021/05/21 04:21:51;;;;;;;2.83;2.40;;;;;;;9.36;84.85;100370.56;5063358;28;20196;-74
2021/05/21 04:24:17;;;;;;;3.00;2.10;;;;;;;9.42;85.01;100375.59;5058129;28;20237;-75
2021/05/21 04:26:43;;;;;;;2.50;2.30;;;;;;;9.52;84.21;100370.19;5054013;28;20260;-74
2021/05/21 04:29:10;;;;;;;3.00;2.70;;;;;;;9.60;84.32;100376.91;5047826;28;20198;-74
2021/05/21 04:31:36;;;;;;;3.30;2.20;;;;;;;9.65;83.65;100376.75;5056849;28;20212;-74
2021/05/21 04:34:02;;;;;;;3.33;2.50;;;;;;;9.67;83.49;100367.16;5059374;28;20192;-74
2021/05/21 04:36:28;;;;;;;2.37;2.17;;;;;;;9.70;83.31;100361.03;5065994;28;20872;-74
2021/05/21 04:38:54;;;;;;;2.30;1.97;;;;;;;9.72;83.17;100367.88;5060689;28;20197;-74
2021/05/21 04:41:20;;;;;;;2.97;2.30;;;;;;;9.68;83.32;100370.63;5064706;28;20289;-74
2021/05/21 04:43:46;;;;;;;2.67;2.10;;;;;;;9.66;82.85;100357.66;5062880;28;20202;-74
2021/05/21 04:46:13;;;;;;;3.17;2.50;;;;;;;9.68;82.75;100355.00;5063395;28;20276;-74
2021/05/21 04:48:39;;;;;;;3.80;2.27;;;;;;;9.73;82.85;100345.34;5061988;28;20247;-74
2021/05/21 04:51:05;;;;;;;2.40;2.20;;;;;;;9.82;82.43;100347.69;5065404;28;20214;-74
2021/05/21 04:53:31;;;;;;;1.97;1.83;;;;;;;10.08;81.24;100353.91;5060831;28;20292;-74
2021/05/21 04:55:57;;;;;;;3.17;2.10;;;;;;;10.34;81.80;100351.44;5061679;28;20205;-74
2021/05/21 04:58:23;;;;;;;3.53;2.17;;;;;;;10.53;81.15;100351.72;5061424;28;20206;-74
2021/05/21 05:00:49;;;;;;;2.57;2.20;;;;;;;10.78;79.91;100344.03;5059538;28;20816;-74
2021/05/21 05:03:17;;;;;;;2.37;1.90;;;;;;;10.96;78.63;100342.59;5046417;28;20285;-74
2021/05/21 05:05:44;;;;;;;2.17;1.97;;;;;;;11.19;77.67;100338.38;5063678;28;20555;-74
2021/05/21 05:08:10;;;;;;;2.80;2.10;;;;;;;11.38;78.31;100338.63;5060432;28;20255;-74
2021/05/21 05:10:36;;;;;;;2.57;1.80;;;;;;;11.53;77.21;100339.84;5059625;28;20225;-74
2021/05/21 05:13:02;;;;;;;2.63;2.10;;;;;;;11.66;75.72;100335.03;5058829;28;20207;-74
2021/05/21 05:15:32;;;;;;;3.13;1.77;;;;;;;11.82;75.00;100335.31;5045043;28;20207;-74
2021/05/21 05:17:58;;;;;;;2.50;1.60;;;;;;;12.00;75.23;100329.47;5053978;28;20222;-74
2021/05/21 05:20:25;;;;;;;3.50;1.60;;;;;;;12.07;73.37;100328.34;5043342;28;20681;-74
2021/05/21 05:22:52;;;;;;;2.20;1.73;;;;;;;12.12;74.72;100322.97;5057684;28;20211;-75
2021/05/21 05:25:18;;;;;;;2.20;1.90;;;;;;;12.23;74.11;100318.16;5064792;28;20209;-74
2021/05/21 05:27:44;;;;;;;2.87;1.60;;;;;;;12.37;75.01;100320.25;5058653;28;20256;-74
2021/05/21 05:30:11;;;;;;;2.13;1.50;;;;;;;12.37;72.98;100324.66;5064031;28;20222;-74
2021/05/21 05:32:37;;;;;;;2.63;1.60;;;;;;;12.45;73.31;100323.44;5058212;28;20203;-74
2021/05/21 05:35:05;;;;;;;2.40;1.50;;;;;;;12.56;71.64;100315.19;5066494;28;20202;-74
2021/05/21 05:37:32;;;;;;;2.37;1.60;;;;;;;12.68;72.27;100314.69;5057981;28;20226;-74
2021/05/21 05:39:58;;;;;;;1.80;1.37;;;;;;;12.85;70.94;100305.31;5058724;28;20218;-74
2021/05/21 05:42:24;;;;;;;1.87;1.50;;;;;;;12.98;71.47;100303.91;5058221;28;20206;-74
2021/05/21 05:44:50;;;;;;;1.67;1.40;;;;;;;13.14;71.39;100304.13;5064840;28;20674;-74
2021/05/21 05:47:16;;;;;;;1.50;1.40;;;;;;;13.24;70.09;100288.84;5056008;28;20205;-74
2021/05/21 05:49:42;;;;;;;1.93;1.37;;;;;;;13.27;69.60;100284.34;5061500;28;20207;-74
2021/05/21 05:52:08;;;;;;;2.03;1.30;;;;;;;13.31;70.17;100289.44;5070321;28;20203;-74
2021/05/21 05:54:35;;;;;;;1.80;1.40;;;;;;;13.43;70.66;100289.78;5061713;28;20199;-74
2021/05/21 05:57:01;;;;;;;2.40;1.60;;;;;;;13.50;70.84;100284.31;5054467;28;20218;-74
2021/05/21 05:59:28;;;;;;;1.83;1.30;;;;;;;13.59;69.00;100283.91;5062381;28;20851;-74
2021/05/21 06:01:54;;;;;;;1.90;1.13;;;;;;;13.62;69.91;100282.00;5051587;28;20210;-74
2021/05/21 06:04:20;;;;;;;1.50;1.30;;;;;;;13.76;69.48;100275.28;5061799;28;20214;-74
2021/05/21 06:06:47;;;;;;;2.03;1.37;;;;;;;13.92;68.50;100275.44;5038856;28;20929;-75
2021/05/21 06:09:13;;;;;;;1.53;1.20;;;;;;;14.05;68.52;100273.13;5069115;28;20197;-74
2021/05/21 06:11:40;;;;;;;2.40;1.10;;;;;;;14.04;66.30;100272.28;5054534;28;20573;-74
2021/05/21 06:14:06;;;;;;;2.40;1.10;;;;;;;14.06;65.70;100282.69;5064324;28;20209;-75
2021/05/21 06:16:32;;;;;;;1.17;1.07;;;;;;;14.14;64.89;100268.31;5057231;28;20221;-74
2021/05/21 06:18:58;;;;;;;3.23;1.10;;;;;;;14.24;65.99;100260.00;5060555;28;20301;-74
2021/05/21 06:21:24;;;;;;;1.17;1.07;;;;;;;14.24;64.74;100263.47;5070320;28;20215;-74
2021/05/21 06:23:50;;;;;;;1.47;1.23;;;;;;;14.38;64.58;100257.56;5060552;28;20195;-75
2021/05/21 06:26:28;;;;;;;1.70;1.13;;;;;;;14.52;64.98;100251.66;5057852;28;20195;-74
2021/05/21 06:28:55;;;;;;;1.50;1.30;;;;;;;14.68;62.87;100255.25;5060160;28;20252;-74
2021/05/21 06:31:22;;;;;;;2.00;1.30;;;;;;;14.90;64.21;100255.06;5056542;28;20277;-75
2021/05/21 06:33:48;;;;;;;2.30;1.07;;;;;;;14.92;63.85;100253.19;5063240;28;20387;-74
2021/05/21 06:36:15;;;;;;;1.10;0.97;;;;;;;14.76;62.86;100257.53;5055332;28;20198;-74
2021/05/21 06:38:41;;;;;;;1.20;1.10;;;;;;;14.57;62.07;100250.50;5062134;28;20286;-75
2021/05/21 06:41:08;;;;;;;1.20;1.10;;;;;;;14.51;64.61;100242.97;5056365;28;20214;-75
2021/05/21 06:43:35;;;;;;;2.50;1.00;;;;;;;14.49;64.04;100230.81;5054799;28;20195;-74
2021/05/21 06:46:04;;;;;;;1.87;1.20;;;;;;;14.57;62.88;100240.03;5054131;28;20221;-74
2021/05/21 06:48:32;;;;;;;1.00;0.90;;;;;;;14.77;62.30;100233.84;5056894;28;20245;-75
2021/05/21 06:50:59;;;;;;;2.77;1.00;;;;;;;14.87;60.27;100225.50;5060923;28;20211;-74
2021/05/21 06:53:26;;;;;;;1.00;0.80;;;;;;;15.06;59.67;100222.78;5055991;28;20197;-75
2021/05/21 06:55:53;;;;;;;1.73;0.90;;;;;;;15.11;60.86;100226.88;5058153;28;20195;-75
2021/05/21 06:58:19;;;;;;;2.67;1.00;;;;;;;15.22;61.18;100220.22;5054094;28;20210;-74
2021/05/21 07:00:46;;;;;;;2.97;1.03;;;;;;;15.28;60.02;100212.84;5056914;28;20808;-74
2021/05/21 07:03:12;;;;;;;1.27;0.90;;;;;;;15.33;60.05;100208.22;5061654;28;20209;-75
2021/05/21 07:05:40;;;;;;;1.20;0.80;;;;;;;15.66;61.79;100199.47;5057277;28;20198;-75
2021/05/21 07:08:07;;;;;;;1.03;0.90;;;;;;;15.72;60.58;100203.53;5063424;28;20221;-75
2021/05/21 07:10:32;;;;;;;0.93;0.90;;;;;;;15.77;60.15;100198.06;5056668;28;20203;-75
2021/05/21 07:13:07;;;;;;;0.70;0.70;;;;;;;15.71;59.53;100202.69;5058770;28;20209;-75
2021/05/21 07:15:33;;;;;;;1.00;0.90;;;;;;;15.84;61.02;100188.91;5062650;28;20222;-75
2021/05/21 07:17:58;;;;;;;2.83;0.90;;;;;;;15.81;58.97;100189.09;5060627;28;20218;-75
2021/05/21 07:20:25;;;;;;;1.27;0.87;;;;;;;15.89;59.42;100192.16;5056971;28;20218;-75
2021/05/21 07:22:51;;;;;;;1.10;0.90;;;;;;;15.91;59.78;100174.50;5054547;28;20204;-74
2021/05/21 07:25:17;;;;;;;2.27;1.00;;;;;;;15.90;58.01;100171.03;5059835;28;20213;-75
2021/05/21 07:27:43;;;;;;;1.27;0.80;;;;;;;15.96;57.31;100169.84;5060761;28;20206;-75
2021/05/21 07:30:10;;;;;;;1.07;0.90;;;;;;;16.01;58.99;100173.06;5058957;28;20308;-74
2021/05/21 07:32:36;;;;;;;1.73;0.70;;;;;;;16.17;59.93;100167.78;5058429;28;20619;-74
2021/05/21 07:35:03;;;;;;;3.60;0.73;;;;;;;16.14;58.53;100164.50;5057564;28;20227;-75
2021/05/21 07:37:30;;;;;;;1.87;0.80;;;;;;;16.26;56.69;100164.63;5051692;28;20226;-75
2021/05/21 07:39:56;;;;;;;0.80;0.80;;;;;;;16.43;58.48;100153.16;5063297;28;20207;-75
2021/05/21 07:42:22;;;;;;;1.03;0.90;;;;;;;16.57;58.80;100143.56;5054724;28;20195;-75
2021/05/21 07:44:48;;;;;;;1.03;0.93;;;;;;;16.67;57.09;100150.00;5060531;28;20228;-75
2021/05/21 07:47:14;;;;;;;1.20;1.10;;;;;;;16.76;55.77;100141.59;5055970;28;20221;-75
2021/05/21 07:49:40;;;;;;;1.63;0.80;;;;;;;16.84;57.38;100144.63;5059770;28;20305;-75
2021/05/21 07:52:07;;;;;;;1.73;1.00;;;;;;;16.88;56.01;100141.81;5054487;28;20222;-75
2021/05/21 07:54:34;;;;;;;1.83;1.00;;;;;;;16.83;54.33;100144.66;5058868;28;20200;-75
2021/05/21 07:57:00;;;;;;;1.23;0.90;;;;;;;16.95;53.65;100135.22;5058837;28;20256;-75
2021/05/21 07:59:26;;;;;;;1.13;0.90;;;;;;;16.92;55.62;100133.66;5060459;28;20276;-75
2021/05/21 08:01:51;;;;;;;1.43;0.70;;;;;;;16.95;53.97;100128.16;5056333;28;20190;-75
2021/05/21 08:04:18;;;;;;;1.70;0.83;;;;;;;17.12;52.81;100119.25;5059994;28;20463;-75
2021/05/21 08:06:44;;;;;;;1.20;0.80;;;;;;;17.07;53.63;100109.94;5056069;28;20209;-75
2021/05/21 08:09:10;;;;;;;0.80;0.70;;;;;;;17.20;54.26;100106.47;5075033;28;20255;-75
2021/05/21 08:11:37;;;;;;;0.93;0.70;;;;;;;17.21;53.83;100110.78;5054249;28;20244;-75
2021/05/21 08:14:04;;;;;;;1.80;0.63;;;;;;;17.31;52.71;100105.78;5062065;28;20554;-75
2021/05/21 08:16:30;;;;;;;1.07;0.70;;;;;;;17.17;52.40;100093.47;5056489;28;20226;-75
2021/05/21 08:18:56;;;;;;;0.50;0.50;;;;;;;17.30;54.47;100090.06;5054063;28;20334;-75
2021/05/21 08:21:23;;;;;;;3.10;0.60;;;;;;;17.28;52.05;100097.22;5054487;28;20257;-75
2021/05/21 08:23:49;;;;;;;0.80;0.70;;;;;;;17.34;54.08;100092.44;5064104;28;20718;-75
2021/05/21 08:26:15;;;;;;;0.90;0.70;;;;;;;17.36;52.69;100092.31;5059257;28;20206;-75
2021/05/21 08:28:42;;;;;;;1.73;0.70;;;;;;;17.41;54.77;100087.59;5056916;28;20195;-75
2021/05/21 08:31:09;;;;;;;0.60;0.60;;;;;;;17.43;52.78;100085.75;5058194;28;20298;-75
2021/05/21 08:33:39;;;;;;;0.60;0.60;;;;;;;17.57;54.75;100077.78;5061345;28;20191;-76
2021/05/21 08:36:07;;;;;;;0.70;0.70;;;;;;;17.55;52.50;100076.19;5060560;28;20198;-75
2021/05/21 08:38:33;;;;;;;0.70;0.70;;;;;;;17.69;53.27;100075.31;5060993;28;20279;-75
2021/05/21 08:41:00;;;;;;;2.13;0.60;;;;;;;17.75;50.59;100080.19;5057552;28;20218;-75
2021/05/21 08:43:26;;;;;;;0.60;0.60;;;;;;;17.87;51.94;100062.75;5061543;28;20199;-75
2021/05/21 08:45:53;;;;;;;0.63;0.63;;;;;;;17.79;51.02;100071.13;5054728;28;20226;-75
2021/05/21 08:48:19;;;;;;;1.60;0.60;;;;;;;17.66;51.30;100054.41;5059450;28;20194;-76
2021/05/21 08:50:45;;;;;;;0.60;0.60;;;;;;;17.84;51.79;100042.66;5065335;28;20241;-75
2021/05/21 08:53:12;;;;;;;0.80;0.70;;;;;;;18.14;51.68;100044.25;5062732;28;20235;-75
2021/05/21 08:55:38;;;;;;;1.70;0.60;;;;;;;18.25;50.07;100054.94;5057523;28;20199;-75
2021/05/21 08:58:09;;;;;;;0.80;0.80;;;;;;;18.41;49.76;100030.97;5058694;28;20305;-75
2021/05/21 09:00:35;;;;;;;1.30;0.80;;;;;;;18.68;49.59;100032.66;5054587;28;20215;-75
2021/05/21 09:03:18;;;;;;;0.53;0.53;;;;;;;18.66;49.98;100021.38;5061738;28;20613;-75
2021/05/21 09:06:00;;;;;;;1.03;0.80;;;;;;;18.76;51.70;100026.88;5054680;28;20581;-75
2021/05/21 09:08:34;;;;;;;0.83;0.80;;;;;;;18.85;52.48;100010.41;5058706;28;20198;-75
2021/05/21 09:11:00;;;;;;;0.90;0.70;;;;;;;18.91;49.48;100018.75;5056582;28;20219;-75
2021/05/21 09:13:33;;;;;;;0.70;0.70;;;;;;;18.81;50.44;100015.03;5059536;28;20195;-75
2021/05/21 09:16:19;;;;;;;0.77;0.77;;;;;;;18.97;51.11;100014.81;5044037;28;20202;-75
2021/05/21 09:19:03;;;;;;;3.33;0.93;;;;;;;18.98;51.51;100013.00;5058357;28;20635;-75
2021/05/21 09:21:52;;;;;;;0.70;0.70;;;;;;;18.72;49.84;100016.50;5063195;28;20312;-75
2021/05/21 09:24:20;;;;;;;0.97;0.80;;;;;;;18.59;51.49;100012.19;5057178;28;20206;-75
2021/05/21 09:26:48;;;;;;;1.00;0.70;;;;;;;18.92;49.46;100007.22;5062444;28;20198;-75
2021/05/21 09:29:16;;;;;;;1.57;0.80;;;;;;;18.94;50.74;100004.47;5062455;28;20202;-75
2021/05/21 09:31:44;;;;;;;0.70;0.67;;;;;;;18.88;48.15;100011.03;5061841;28;20670;-75
2021/05/21 09:34:12;;;;;;;1.80;0.57;;;;;;;18.82;46.63;100016.75;5058181;28;20207;-75
2021/05/21 09:36:39;;;;;;;2.17;0.57;;;;;;;18.87;48.12;100009.34;5053320;28;20199;-75
2021/05/21 09:39:08;;;;;;;1.83;0.70;;;;;;;19.12;46.48;100012.91;5057493;28;20205;-75
2021/05/21 09:41:46;;;;;;;0.73;0.40;;;;;;;19.14;47.52;100004.84;5052689;28;20600;-76
2021/05/21 09:44:13;;;;;;;2.53;0.53;;;;;;;19.28;46.97;99994.97;5059251;28;20205;-77
2021/05/21 09:46:40;;;;;;;1.67;0.60;;;;;;;19.51;46.36;99991.59;5065892;28;20259;-75
2021/05/21 09:49:27;;;;;;;1.10;0.50;;;;;;;19.53;45.11;99990.53;5057758;28;20235;-75
2021/05/21 09:51:54;;;;;;;1.33;0.50;;;;;;;19.77;47.13;99977.34;5060165;28;20213;-75
2021/05/21 09:54:21;;;;;;;0.50;0.50;;;;;;;19.65;45.89;99996.72;5060642;28;20283;-76
2021/05/21 09:57:03;;;;;;;1.53;0.60;;;;;;;19.79;46.19;99993.09;5062520;28;20194;-75
2021/05/21 09:59:40;;;;;;;0.90;0.60;;;;;;;19.65;44.25;99976.41;5051469;28;20210;-76
2021/05/21 10:02:20;;;;;;;0.70;0.50;;;;;;;19.60;47.05;99972.44;5056569;28;20190;-75
2021/05/21 10:04:47;;;;;;;1.67;0.60;;;;;;;19.82;46.20;99971.69;5060495;28;20201;-75
2021/05/21 10:07:14;;;;;;;0.60;0.60;;;;;;;19.75;45.96;99960.75;5059802;28;20687;-75
2021/05/21 10:09:41;;;;;;;3.30;0.60;;;;;;;19.82;44.63;99963.75;5047884;28;20613;-75
2021/05/21 10:12:08;;;;;;;0.60;0.53;;;;;;;19.98;45.73;99950.19;5045380;28;20253;-76
2021/05/21 10:14:34;;;;;;;3.30;0.60;;;;;;;20.03;46.29;99948.06;5053904;28;20542;-76
2021/05/21 10:17:01;;;;;;;2.90;0.80;;;;;;;19.99;46.25;99946.59;5057954;28;20242;-75
2021/05/21 10:19:28;;;;;;;2.00;0.53;;;;;;;19.96;45.66;99955.59;5058706;28;20599;-76
2021/05/21 10:21:55;;;;;;;2.00;0.60;;;;;;;19.98;44.74;99947.56;5054698;28;20741;-76
2021/05/21 10:24:24;;;;;;;0.87;0.53;;;;;;;19.83;42.55;99949.56;5056785;28;20644;-75
2021/05/21 10:26:53;;;;;;;0.83;0.50;;;;;;;19.67;40.79;99949.84;5055837;28;20214;-75
2021/05/21 10:29:22;;;;;;;1.03;0.47;;;;;;;19.72;41.20;99941.56;5058658;28;20208;-75
2021/05/21 10:31:50;;;;;;;1.40;0.50;;;;;;;19.82;41.59;99943.47;5058023;28;20211;-76
2021/05/21 10:34:18;;;;;;;0.80;0.53;;;;;;;19.71;42.38;99939.91;5060264;28;20198;-75
2021/05/21 10:37:27;;;;;;;1.07;0.50;;;;;;;19.44;42.65;99933.91;5049660;28;20357;-75
2021/05/21 10:40:14;;;;;;;0.70;0.50;;;;;;;19.62;43.04;99922.91;5052190;28;20279;-76
2021/05/21 10:42:59;;;;;;;1.23;0.57;;;;;;;19.74;42.54;99908.81;5058961;28;20770;-75
2021/05/21 10:45:52;;;;;;;0.60;0.60;;;;;;;19.88;40.43;99909.56;5060674;28;20202;-75
2021/05/21 10:48:25;;;;;;;1.20;0.50;;;;;;;19.98;41.31;99903.44;5055894;28;20716;-75
2021/05/21 10:51:07;;;;;;;2.77;0.53;;;;;;;19.92;42.40;99892.50;5047215;28;20420;-75
2021/05/21 10:53:39;;;;;;;1.97;0.70;;;;;;;20.04;41.40;99899.47;5057097;28;20198;-76
2021/05/21 10:56:05;;;;;;;0.93;0.50;;;;;;;20.06;43.38;99902.84;5056912;28;20215;-75
2021/05/21 10:58:34;;;;;;;0.97;0.53;;;;;;;20.11;42.14;99886.63;5056741;28;20775;-76
2021/05/21 11:01:18;;;;;;;1.23;0.70;;;;;;;20.10;42.31;99871.69;5067884;28;20231;-76
2021/05/21 11:04:09;;;;;;;0.60;0.60;;;;;;;20.12;42.56;99883.00;5060176;28;20222;-75
2021/05/21 11:06:53;;;;;;;1.07;0.60;;;;;;;19.92;42.04;99877.44;5056620;28;20206;-76
2021/05/21 11:09:22;;;;;;;2.23;0.57;;;;;;;19.94;41.89;99879.97;5056240;28;20203;-75
2021/05/21 11:11:54;;;;;;;1.10;0.60;;;;;;;20.09;42.58;99873.50;5053959;28;20642;-76
2021/05/21 11:14:27;;;;;;;1.10;0.53;;;;;;;20.07;39.73;99890.44;5055200;28;20202;-76
2021/05/21 11:16:53;;;;;;;0.60;0.50;;;;;;;19.92;41.50;99877.44;5057377;28;20646;-75
2021/05/21 11:19:20;;;;;;;1.60;0.50;;;;;;;20.02;39.35;99891.66;5052543;28;20203;-76
2021/05/21 11:21:49;;;;;;;0.60;0.40;;;;;;;19.91;41.08;99885.50;5054429;28;20203;-75
2021/05/21 11:24:15;;;;;;;0.93;0.40;;;;;;;19.78;41.78;99875.03;5056464;28;20278;-76
2021/05/21 11:26:42;;;;;;;1.60;0.53;;;;;;;19.82;42.34;99871.19;5053016;28;20347;-76
2021/05/21 11:29:09;;;;;;;3.53;0.70;;;;;;;19.71;42.33;99863.19;5054005;28;20207;-75
2021/05/21 11:31:37;;;;;;;0.80;0.50;;;;;;;19.62;41.60;99878.81;5055000;28;20682;-76